createdAt,value
2022-09-06T00:01:23.451Z,9.38
2022-09-06T00:03:50.895Z,9.27
2022-09-06T00:06:19.579Z,9.16
2022-09-06T00:08:46.971Z,9.06
2022-09-06T00:11:13.826Z,8.97
2022-09-06T00:13:40.549Z,8.89
2022-09-06T00:16:12.884Z,8.79
2022-09-06T00:18:39.775Z,8.70
2022-09-06T00:21:13.065Z,8.62
2022-09-06T00:23:39.811Z,8.56
2022-09-06T00:26:06.591Z,8.50
2022-09-06T00:28:33.241Z,8.46
2022-09-06T00:31:08.409Z,8.47
2022-09-06T00:33:35.303Z,8.51
2022-09-06T00:36:02.061Z,8.53
2022-09-06T00:38:28.842Z,8.56
2022-09-06T00:40:55.555Z,8.59
2022-09-06T00:43:22.439Z,8.59
2022-09-06T00:45:49.261Z,8.56
2022-09-06T00:48:15.986Z,8.51
2022-09-06T00:50:43.350Z,8.47
2022-09-06T00:53:10.132Z,8.41
2022-09-06T00:55:36.873Z,8.32
2022-09-06T00:58:03.800Z,8.26
2022-09-06T01:00:30.617Z,8.15
2022-09-06T01:02:57.295Z,8.08
2022-09-06T01:05:25.369Z,8.01
2022-09-06T01:08:15.563Z,7.93
2022-09-06T01:10:50.273Z,7.82
2022-09-06T01:13:23.847Z,7.76
2022-09-06T01:16:35.168Z,7.67
2022-09-06T01:19:17.940Z,7.58
2022-09-06T01:21:47.850Z,7.51
2022-09-06T01:24:30.984Z,7.47
2022-09-06T01:27:42.459Z,7.42
2022-09-06T01:30:10.222Z,7.36
2022-09-06T01:32:39.842Z,7.30
2022-09-06T01:35:28.983Z,7.24
2022-09-06T01:37:56.264Z,7.19
2022-09-06T01:40:23.100Z,7.17
2022-09-06T01:42:49.805Z,7.15
2022-09-06T01:45:25.618Z,7.11
2022-09-06T01:48:29.544Z,7.08
2022-09-06T01:50:59.210Z,7.08
2022-09-06T01:53:59.763Z,7.06
2022-09-06T01:56:39.588Z,7.02
2022-09-06T01:59:31.025Z,6.98
2022-09-06T02:02:15.224Z,6.95
2022-09-06T02:05:17.153Z,6.93
2022-09-06T02:07:44.000Z,6.92
2022-09-06T02:10:24.187Z,6.92
2022-09-06T02:12:53.534Z,6.89
2022-09-06T02:15:25.705Z,6.88
2022-09-06T02:18:17.011Z,6.87
2022-09-06T02:20:48.246Z,6.85
2022-09-06T02:23:15.001Z,6.85
2022-09-06T02:25:43.883Z,6.85
2022-09-06T02:28:10.641Z,6.84
2022-09-06T02:30:42.876Z,6.83
2022-09-06T02:33:13.770Z,6.82
2022-09-06T02:35:51.562Z,6.80
2022-09-06T02:38:18.639Z,6.76
2022-09-06T02:40:45.789Z,6.71
2022-09-06T02:43:12.670Z,6.67
2022-09-06T02:45:39.472Z,6.65
2022-09-06T02:48:06.316Z,6.62
2022-09-06T02:50:32.955Z,6.60
2022-09-06T02:53:02.445Z,6.57
2022-09-06T02:55:29.186Z,6.56
2022-09-06T02:57:55.933Z,6.58
2022-09-06T03:00:22.719Z,6.58
2022-09-06T03:02:49.510Z,6.57
2022-09-06T03:05:16.226Z,6.55
2022-09-06T03:07:43.018Z,6.49
2022-09-06T03:10:09.971Z,6.44
2022-09-06T03:12:36.718Z,6.43
2022-09-06T03:15:04.026Z,6.40
2022-09-06T03:17:31.292Z,6.45
2022-09-06T03:19:58.029Z,6.50
2022-09-06T03:22:24.782Z,6.55
2022-09-06T03:24:51.515Z,6.62
2022-09-06T03:27:18.218Z,6.70
2022-09-06T03:29:44.975Z,6.78
2022-09-06T03:32:11.781Z,6.83
2022-09-06T03:34:38.432Z,6.89
2022-09-06T03:37:05.198Z,6.94
2022-09-06T03:39:31.924Z,6.99
2022-09-06T03:41:58.667Z,7.03
2022-09-06T03:44:25.415Z,7.07
2022-09-06T03:46:52.725Z,7.08
2022-09-06T03:49:19.496Z,7.08
2022-09-06T03:51:46.167Z,7.11
2022-09-06T03:55:06.293Z,7.17
2022-09-06T03:57:34.271Z,7.17
2022-09-06T04:00:01.081Z,7.21
2022-09-06T04:02:38.261Z,7.23
2022-09-06T04:05:06.435Z,7.23
2022-09-06T04:07:33.555Z,7.25
2022-09-06T04:10:00.314Z,7.32
2022-09-06T04:12:27.016Z,7.39
2022-09-06T04:14:53.777Z,7.49
2022-09-06T04:17:20.543Z,7.58
2022-09-06T04:19:47.195Z,7.74
2022-09-06T04:22:13.949Z,7.93
2022-09-06T04:24:40.690Z,8.09
2022-09-06T04:27:07.360Z,8.22
2022-09-06T04:29:34.126Z,8.28
2022-09-06T04:32:00.897Z,8.35
2022-09-06T04:34:27.843Z,8.49
2022-09-06T04:36:54.547Z,8.68
2022-09-06T04:39:21.374Z,8.93
2022-09-06T04:41:47.998Z,9.19
2022-09-06T04:44:14.768Z,9.50
2022-09-06T04:46:41.616Z,9.80
2022-09-06T04:49:08.443Z,10.06
2022-09-06T04:51:35.264Z,10.24
2022-09-06T04:56:46.461Z,10.35
2022-09-06T04:59:13.207Z,10.36
2022-09-06T05:01:39.920Z,10.35
2022-09-06T05:04:06.652Z,10.30
2022-09-06T05:06:33.555Z,10.23
2022-09-06T05:09:00.503Z,10.21
2022-09-06T05:11:27.731Z,10.18
2022-09-06T05:13:54.489Z,10.17
2022-09-06T05:16:21.248Z,10.16
2022-09-06T05:18:48.140Z,10.15
2022-09-06T05:21:15.022Z,10.13
2022-09-06T05:23:42.478Z,10.08
2022-09-06T05:26:09.379Z,10.05
2022-09-06T05:28:36.342Z,10.03
2022-09-06T05:31:08.165Z,10.02
2022-09-06T05:33:35.031Z,10.00
2022-09-06T05:36:02.325Z,9.94
2022-09-06T05:38:29.805Z,9.92
2022-09-06T05:40:56.669Z,9.91
2022-09-06T05:43:23.430Z,9.91
2022-09-06T05:45:50.540Z,9.93
2022-09-06T05:48:17.398Z,9.94
2022-09-06T05:50:44.124Z,9.98
2022-09-06T05:53:11.018Z,10.03
2022-09-06T05:55:42.307Z,10.07
2022-09-06T05:58:09.822Z,10.09
2022-09-06T06:00:36.640Z,10.11
2022-09-06T06:03:03.379Z,10.10
2022-09-06T06:05:32.324Z,10.08
2022-09-06T06:07:59.747Z,10.08
2022-09-06T06:10:26.600Z,10.12
2022-09-06T06:12:53.293Z,10.17
2022-09-06T06:15:20.105Z,10.18
2022-09-06T06:17:46.835Z,10.19
2022-09-06T06:20:13.715Z,10.22
2022-09-06T06:22:40.472Z,10.26
2022-09-06T06:25:07.484Z,10.29
2022-09-06T06:27:35.393Z,10.34
2022-09-06T06:30:02.186Z,10.36
2022-09-06T06:32:28.917Z,10.41
2022-09-06T06:34:55.673Z,10.45
2022-09-06T06:37:22.417Z,10.50
2022-09-06T06:39:49.516Z,10.55
2022-09-06T06:42:16.541Z,10.56
2022-09-06T06:44:49.579Z,10.60
2022-09-06T06:47:16.276Z,10.61
2022-09-06T06:49:43.049Z,10.64
2022-09-06T06:52:09.814Z,10.70
2022-09-06T06:54:37.533Z,10.73
2022-09-06T06:57:04.635Z,10.77
2022-09-06T06:59:31.508Z,10.83
2022-09-06T07:01:58.814Z,10.89
2022-09-06T07:04:25.698Z,10.94
2022-09-06T07:12:27.170Z,11.09
2022-09-06T07:14:54.051Z,11.15
2022-09-06T07:17:20.835Z,11.20
2022-09-06T07:22:34.286Z,11.26
2022-09-06T07:25:00.991Z,11.28
2022-09-06T07:30:14.576Z,11.35
2022-09-06T07:32:41.234Z,11.39
2022-09-06T07:35:08.564Z,11.45
2022-09-06T07:37:35.496Z,11.48
2022-09-06T07:40:03.527Z,11.51
2022-09-06T07:42:35.675Z,11.56
2022-09-06T07:45:04.806Z,11.63
2022-09-06T07:53:11.222Z,11.87
2022-09-06T07:55:41.931Z,11.98
2022-09-06T07:58:08.694Z,12.07
2022-09-06T08:00:35.580Z,12.10
2022-09-06T08:03:02.402Z,12.12
2022-09-06T08:11:02.766Z,12.10
2022-09-06T08:13:29.688Z,12.10
2022-09-06T08:16:07.110Z,12.11
2022-09-06T08:18:34.966Z,12.14
2022-09-06T08:21:12.820Z,12.20
2022-09-06T08:23:42.827Z,12.27
2022-09-06T08:26:09.642Z,12.33
2022-09-06T08:28:36.298Z,12.38
2022-09-06T08:31:10.719Z,12.36
2022-09-06T08:33:38.169Z,12.33
2022-09-06T08:36:05.713Z,12.32
2022-09-06T08:38:32.683Z,12.32
2022-09-06T08:41:12.916Z,12.32
2022-09-06T08:43:40.149Z,12.32
2022-09-06T08:46:07.636Z,12.35
2022-09-06T08:48:37.045Z,12.44
2022-09-06T08:51:42.900Z,12.53
2022-09-06T08:54:18.747Z,12.60
2022-09-06T08:57:03.698Z,12.65
2022-09-06T08:59:35.978Z,12.68
2022-09-06T09:02:13.351Z,12.64
2022-09-06T09:04:57.020Z,12.64
2022-09-06T09:07:52.401Z,12.70
2022-09-06T09:10:22.774Z,12.78
2022-09-06T09:12:49.551Z,12.79
2022-09-06T09:15:17.902Z,12.80
2022-09-06T09:17:44.864Z,12.83
2022-09-06T09:20:11.692Z,12.83
2022-09-06T09:22:39.198Z,12.86
2022-09-06T09:25:06.694Z,12.97
2022-09-06T09:27:33.563Z,13.04
2022-09-06T09:32:50.090Z,13.07
2022-09-06T09:35:23.563Z,13.06
2022-09-06T09:38:04.993Z,13.08
2022-09-06T09:40:40.192Z,13.06
2022-09-06T09:43:26.200Z,13.01
2022-09-06T09:46:11.735Z,12.96
2022-09-06T09:48:38.959Z,12.93
2022-09-06T09:51:27.477Z,12.90
2022-09-06T09:53:57.554Z,12.86
2022-09-06T09:56:34.833Z,12.84
2022-09-06T09:59:01.553Z,12.81
2022-09-06T10:01:31.894Z,12.76
2022-09-06T10:07:11.248Z,12.74
2022-09-06T10:10:05.295Z,12.73
2022-09-06T10:12:36.251Z,12.75
2022-09-06T10:15:07.029Z,12.78
2022-09-06T10:17:53.160Z,12.81
2022-09-06T10:20:20.573Z,12.85
2022-09-06T10:23:02.283Z,12.89
2022-09-06T10:25:49.206Z,12.90
2022-09-06T10:28:36.878Z,12.88
2022-09-06T10:31:22.504Z,12.90
2022-09-06T10:34:18.571Z,12.92
2022-09-06T10:37:17.088Z,12.94
2022-09-06T10:40:07.318Z,12.97
2022-09-06T10:42:47.995Z,12.96
2022-09-06T10:45:39.482Z,12.98
2022-09-06T10:48:14.861Z,13.04
2022-09-06T10:51:08.647Z,13.09
2022-09-06T10:53:44.494Z,13.16
2022-09-06T10:56:12.386Z,13.18
2022-09-06T11:02:03.215Z,13.28
2022-09-06T11:07:28.534Z,13.40
2022-09-06T11:10:02.662Z,13.42
2022-09-06T11:12:48.278Z,13.46
2022-09-06T11:15:15.477Z,13.50
2022-09-06T11:18:03.611Z,13.54
2022-09-06T11:20:41.333Z,13.55
2022-09-06T11:23:23.491Z,13.54
2022-09-06T11:26:18.437Z,13.49
2022-09-06T11:28:47.998Z,13.42
2022-09-06T11:34:23.381Z,13.35
2022-09-06T11:36:57.186Z,13.28
2022-09-06T11:42:47.754Z,13.17
2022-09-06T11:45:22.484Z,13.13
2022-09-06T11:47:52.852Z,13.11
2022-09-06T11:50:24.364Z,13.09
2022-09-06T11:53:06.549Z,13.08
2022-09-06T11:55:37.488Z,13.05
2022-09-06T11:58:39.631Z,13.03
2022-09-06T12:01:12.486Z,13.00
2022-09-06T12:04:05.134Z,13.01
2022-09-06T12:06:40.949Z,13.04
2022-09-06T12:09:42.943Z,13.07
2022-09-06T12:12:13.459Z,13.13
2022-09-06T12:14:46.206Z,13.17
2022-09-06T12:17:13.075Z,13.21
2022-09-06T12:19:55.290Z,13.22
2022-09-06T12:22:28.865Z,13.22
2022-09-06T12:24:55.675Z,13.24
2022-09-06T12:27:53.093Z,13.27
2022-09-06T12:30:42.637Z,13.33
2022-09-06T12:33:31.842Z,13.39
2022-09-06T12:36:24.390Z,13.46
2022-09-06T12:39:14.929Z,13.51
2022-09-06T12:41:44.212Z,13.50
2022-09-06T12:44:11.082Z,13.50
2022-09-06T12:46:39.996Z,13.54
2022-09-06T12:49:08.690Z,13.59
2022-09-06T12:51:39.289Z,13.62
2022-09-06T12:54:18.235Z,13.62
2022-09-06T12:56:45.072Z,13.63
2022-09-06T12:59:16.997Z,13.65
2022-09-06T13:01:55.084Z,13.69
2022-09-06T13:04:40.424Z,13.76
2022-09-06T13:07:09.648Z,13.87
2022-09-06T13:09:36.456Z,13.94
2022-09-06T13:12:06.600Z,13.96
2022-09-06T13:14:33.399Z,13.95
2022-09-06T13:17:00.262Z,13.89
2022-09-06T13:19:37.884Z,13.86
2022-09-06T13:22:07.570Z,13.92
2022-09-06T13:24:34.344Z,13.98
2022-09-06T13:27:01.254Z,14.02
2022-09-06T13:29:31.847Z,14.04
2022-09-06T13:31:59.859Z,14.05
2022-09-06T13:34:28.165Z,14.03
2022-09-06T13:37:05.612Z,13.95
2022-09-06T13:39:33.915Z,13.87
2022-09-06T13:42:05.850Z,13.83
2022-09-06T13:44:33.770Z,13.81
2022-09-06T13:47:00.601Z,13.81
2022-09-06T13:49:28.332Z,13.81
2022-09-06T13:51:58.275Z,13.79
2022-09-06T13:54:25.149Z,13.75
2022-09-06T13:56:52.018Z,13.74
2022-09-06T13:59:19.015Z,13.75
2022-09-06T14:01:47.016Z,13.76
2022-09-06T14:04:15.823Z,13.78
2022-09-06T14:06:42.800Z,13.81
2022-09-06T14:09:09.999Z,13.84
2022-09-06T14:11:36.978Z,13.87
2022-09-06T14:14:04.051Z,13.88
2022-09-06T14:16:31.627Z,13.87
2022-09-06T14:18:58.458Z,13.85
2022-09-06T14:21:25.228Z,13.83
2022-09-06T14:23:52.650Z,13.85
2022-09-06T14:26:21.041Z,13.86
2022-09-06T14:28:48.031Z,13.87
2022-09-06T14:31:16.649Z,13.85
2022-09-06T14:33:43.530Z,13.81
2022-09-06T14:36:12.002Z,13.76
2022-09-06T14:38:40.077Z,13.70
2022-09-06T14:41:07.587Z,13.65
2022-09-06T14:43:34.921Z,13.61
2022-09-06T14:46:12.856Z,13.59
2022-09-06T14:48:42.265Z,13.55
2022-09-06T14:51:22.064Z,13.50
2022-09-06T14:53:50.351Z,13.44
2022-09-06T14:56:17.059Z,13.39
2022-09-06T14:58:43.920Z,13.36
2022-09-06T15:01:15.478Z,13.31
2022-09-06T15:03:43.521Z,13.27
2022-09-06T15:06:10.333Z,13.24
2022-09-06T15:08:37.946Z,13.23
2022-09-06T15:11:08.231Z,13.22
2022-09-06T15:13:37.105Z,13.22
2022-09-06T15:16:07.796Z,13.22
2022-09-06T15:18:35.143Z,13.22
2022-09-06T15:21:09.768Z,13.22
2022-09-06T15:23:36.773Z,13.19
2022-09-06T15:26:03.784Z,13.14
2022-09-06T15:28:30.482Z,13.11
2022-09-06T15:30:57.277Z,13.09
2022-09-06T15:33:24.082Z,13.07
2022-09-06T15:35:54.697Z,13.04
2022-09-06T15:38:21.395Z,13.03
2022-09-06T15:40:48.134Z,13.01
2022-09-06T15:43:14.884Z,12.99
2022-09-06T15:45:49.394Z,12.96
2022-09-06T15:48:17.086Z,12.93
2022-09-06T15:50:51.259Z,12.92
2022-09-06T15:53:19.500Z,12.91
2022-09-06T15:55:58.248Z,12.89
2022-09-06T15:58:26.680Z,12.86
2022-09-06T16:01:29.138Z,12.83
2022-09-06T16:04:03.609Z,12.82
2022-09-06T16:06:39.611Z,12.80
2022-09-06T16:11:54.458Z,12.77
2022-09-06T16:14:21.692Z,12.73
2022-09-06T16:16:48.433Z,12.70
2022-09-06T16:19:15.127Z,12.68
2022-09-06T16:21:42.639Z,12.66
2022-09-06T16:24:11.028Z,12.63
2022-09-06T16:26:39.511Z,12.59
2022-09-06T16:29:07.136Z,12.55
2022-09-06T16:31:37.758Z,12.52
2022-09-06T16:34:07.900Z,12.47
2022-09-06T16:36:34.699Z,12.44
2022-09-06T16:39:01.377Z,12.43
2022-09-06T16:41:31.854Z,12.43
2022-09-06T16:43:58.850Z,12.42
2022-09-06T16:46:26.108Z,12.42
2022-09-06T16:48:54.953Z,12.40
2022-09-06T16:51:23.019Z,12.39
2022-09-06T16:53:49.743Z,12.37
2022-09-06T16:56:17.920Z,12.35
2022-09-06T16:58:48.579Z,12.33
2022-09-06T17:01:15.793Z,12.30
2022-09-06T17:03:42.570Z,12.26
2022-09-06T17:06:09.500Z,12.24
2022-09-06T17:08:36.526Z,12.21
2022-09-06T17:11:08.680Z,12.16
2022-09-06T17:13:35.557Z,12.10
2022-09-06T17:16:22.377Z,11.98
2022-09-06T17:18:50.017Z,11.87
2022-09-06T17:21:16.769Z,11.77
2022-09-06T17:23:44.624Z,11.65
2022-09-06T17:26:11.310Z,11.51
2022-09-06T17:28:38.387Z,11.35
2022-09-06T17:31:05.793Z,11.20
2022-09-06T17:33:33.093Z,11.04
2022-09-06T17:36:11.818Z,10.89
2022-09-06T17:38:39.464Z,10.73
2022-09-06T17:41:06.585Z,10.56
2022-09-06T17:43:35.782Z,10.44
2022-09-06T17:46:03.829Z,10.31
2022-09-06T17:48:30.728Z,10.19
2022-09-06T17:50:58.343Z,10.05
2022-09-06T17:53:25.073Z,9.92
2022-09-06T17:55:52.335Z,9.78
2022-09-06T17:58:19.983Z,9.65
2022-09-06T18:00:46.740Z,9.54
2022-09-06T18:03:13.517Z,9.44
2022-09-06T18:05:40.307Z,9.35
2022-09-06T18:08:07.871Z,9.24
2022-09-06T18:10:37.896Z,9.13
2022-09-06T18:13:05.857Z,9.04
2022-09-06T18:15:32.877Z,8.97
2022-09-06T18:17:59.657Z,8.91
2022-09-06T18:20:26.603Z,8.85
2022-09-06T18:22:53.341Z,8.76
2022-09-06T18:25:20.082Z,8.68
2022-09-06T18:27:47.383Z,8.61
2022-09-06T18:30:14.967Z,8.56
2022-09-06T18:32:42.013Z,8.52
2022-09-06T18:35:08.901Z,8.48
2022-09-06T18:37:36.652Z,8.45
2022-09-06T18:40:04.832Z,8.41
2022-09-06T18:42:31.780Z,8.37
2022-09-06T18:44:58.558Z,8.32
2022-09-06T18:47:25.294Z,8.28
2022-09-06T18:49:52.161Z,8.26
2022-09-06T18:52:20.465Z,8.23
2022-09-06T18:54:49.152Z,8.20
2022-09-06T18:57:17.256Z,8.16
2022-09-06T18:59:44.588Z,8.14
2022-09-06T19:02:11.647Z,8.13
2022-09-06T19:04:38.492Z,8.12
2022-09-06T19:07:05.234Z,8.10
2022-09-06T19:09:32.070Z,8.08
2022-09-06T19:11:58.762Z,8.04
2022-09-06T19:14:25.783Z,8.01
2022-09-06T19:16:54.237Z,8.00
2022-09-06T19:19:21.886Z,7.98
2022-09-06T19:21:48.665Z,7.96
2022-09-06T19:24:16.052Z,7.96
2022-09-06T19:26:43.978Z,7.97
2022-09-06T19:29:15.825Z,7.98
2022-09-06T19:31:42.947Z,8.00
2022-09-06T19:34:09.853Z,8.05
2022-09-06T19:36:36.588Z,8.09
2022-09-06T19:39:07.117Z,8.10
2022-09-06T19:41:36.191Z,8.13
2022-09-06T19:44:05.737Z,8.14
2022-09-06T19:46:32.982Z,8.18
2022-09-06T19:49:00.579Z,8.21
2022-09-06T19:51:27.532Z,8.24
2022-09-06T19:53:55.147Z,8.25
2022-09-06T19:56:23.725Z,8.23
2022-09-06T19:58:55.780Z,8.19
2022-09-06T20:01:23.025Z,8.13
2022-09-06T20:03:50.099Z,8.09
2022-09-06T20:06:16.885Z,8.05
2022-09-06T20:08:43.596Z,8.02
2022-09-06T20:11:11.078Z,8.00
2022-09-06T20:13:37.930Z,8.00
2022-09-06T20:16:05.105Z,8.01
2022-09-06T20:18:31.912Z,7.99
2022-09-06T20:21:01.467Z,7.93
2022-09-06T20:23:29.140Z,7.84
2022-09-06T20:26:01.920Z,7.76
2022-09-06T20:28:28.888Z,7.69
2022-09-06T20:31:00.632Z,7.63
2022-09-06T20:33:27.392Z,7.55
2022-09-06T20:35:58.220Z,7.50
2022-09-06T20:38:25.377Z,7.46
2022-09-06T20:41:06.465Z,7.42
2022-09-06T20:43:36.434Z,7.37
2022-09-06T20:46:04.784Z,7.31
2022-09-06T20:48:34.914Z,7.26
2022-09-06T20:51:03.542Z,7.22
2022-09-06T20:53:31.588Z,7.18
2022-09-06T20:55:59.774Z,7.14
2022-09-06T20:58:26.899Z,7.10
2022-09-06T21:00:54.034Z,7.08
2022-09-06T21:03:21.084Z,7.07
2022-09-06T21:05:47.843Z,7.06
2022-09-06T21:08:14.751Z,7.04
2022-09-06T21:10:41.702Z,7.00
2022-09-06T21:13:09.011Z,6.97
2022-09-06T21:15:36.574Z,6.94
2022-09-06T21:18:04.640Z,6.91
2022-09-06T21:20:31.466Z,6.90
2022-09-06T21:22:58.130Z,6.89
2022-09-06T21:25:24.875Z,6.89
2022-09-06T21:27:55.536Z,6.88
2022-09-06T21:30:22.612Z,6.86
2022-09-06T21:32:49.436Z,6.83
2022-09-06T21:35:16.117Z,6.82
2022-09-06T21:37:42.847Z,6.79
2022-09-06T21:40:09.844Z,6.78
2022-09-06T21:42:36.689Z,6.75
2022-09-06T21:45:03.655Z,6.71
2022-09-06T21:47:31.422Z,6.65
2022-09-06T21:49:58.239Z,6.62
2022-09-06T21:52:25.051Z,6.59
2022-09-06T21:54:51.835Z,6.57
2022-09-06T21:57:19.774Z,6.54
2022-09-06T21:59:46.507Z,6.51
2022-09-06T22:02:14.382Z,6.50
2022-09-06T22:04:41.121Z,6.49
2022-09-06T22:07:07.862Z,6.46
2022-09-06T22:09:35.628Z,6.45
2022-09-06T22:12:02.576Z,6.43
2022-09-06T22:14:29.327Z,6.43
2022-09-06T22:16:56.036Z,6.42
2022-09-06T22:19:34.867Z,6.39
2022-09-06T22:22:01.673Z,6.35
2022-09-06T22:24:28.377Z,6.31
2022-09-06T22:26:55.132Z,6.29
2022-09-06T22:29:22.716Z,6.25
2022-09-06T22:31:49.545Z,6.23
2022-09-06T22:34:16.330Z,6.20
2022-09-06T22:36:43.136Z,6.18
2022-09-06T22:39:09.911Z,6.14
2022-09-06T22:41:36.600Z,6.11
2022-09-06T22:44:03.861Z,6.07
2022-09-06T22:46:31.053Z,6.06
2022-09-06T22:48:58.390Z,6.06
2022-09-06T22:51:25.137Z,6.09
2022-09-06T22:53:54.577Z,6.10
2022-09-06T22:56:21.373Z,6.11
2022-09-06T22:58:48.086Z,6.15
2022-09-06T23:01:15.532Z,6.15
2022-09-06T23:03:42.792Z,6.14
2022-09-06T23:06:09.790Z,6.12
2022-09-06T23:08:37.238Z,6.09
2022-09-06T23:11:11.776Z,6.07
2022-09-06T23:13:38.654Z,6.03
2022-09-06T23:16:10.139Z,6.01
2022-09-06T23:18:36.926Z,5.98
2022-09-06T23:21:14.674Z,5.97
2022-09-06T23:23:41.792Z,5.96
2022-09-06T23:26:19.598Z,5.95
2022-09-06T23:28:46.395Z,5.95
2022-09-06T23:31:13.804Z,5.94
2022-09-06T23:33:41.688Z,5.92
2022-09-06T23:36:10.063Z,5.89
2022-09-06T23:38:37.621Z,5.86
2022-09-06T23:41:04.475Z,5.84
2022-09-06T23:43:31.173Z,5.82
2022-09-06T23:45:58.529Z,5.81
2022-09-06T23:48:25.514Z,5.76
2022-09-06T23:50:52.273Z,5.73
2022-09-06T23:53:19.124Z,5.72
2022-09-06T23:55:45.777Z,5.70
2022-09-06T23:58:12.521Z,5.66
